Time;durP1;ratioP1;P1;durP2;ratioP2;P2;SDS_P1;SDS_P2;PMS_P1;PMS_P2;Temp;Humidity;BMP_temperature;BMP_pressure;BME280_temperature;BME280_humidity;BME280_pressure;Samples;Min_cycle;Max_cycle;Signal;HPM_P1;HPM_P2
2023/12/25 00:00:45;;;;;;;9.48;1.35;;;11.60;99.90;;;;;;4984976;28;20047;-36
2023/12/25 00:03:10;;;;;;;11.02;1.42;;;11.50;99.90;;;;;;4984175;28;20034;-37
2023/12/25 00:05:36;;;;;;;10.20;1.75;;;11.50;99.90;;;;;;4983112;28;20054;-36
2023/12/25 00:08:02;;;;;;;10.35;1.90;;;11.50;99.90;;;;;;4984301;28;20615;-43
2023/12/25 00:10:27;;;;;;;7.35;1.17;;;11.60;99.90;;;;;;4978210;28;20101;-36
2023/12/25 00:12:53;;;;;;;9.23;1.88;;;11.60;99.90;;;;;;4981973;28;20681;-36
2023/12/25 00:15:19;;;;;;;7.97;1.58;;;11.60;99.90;;;;;;4984754;28;20054;-36
2023/12/25 00:17:44;;;;;;;10.02;1.50;;;11.60;99.90;;;;;;4986253;28;20048;-36
2023/12/25 00:20:10;;;;;;;6.03;1.10;;;11.50;99.90;;;;;;4984650;28;20963;-36
2023/12/25 00:22:36;;;;;;;5.88;1.50;;;11.60;99.90;;;;;;4984739;28;20057;-35
2023/12/25 00:25:02;;;;;;;6.93;1.20;;;11.50;99.90;;;;;;4983014;28;20050;-36
2023/12/25 00:27:27;;;;;;;11.77;2.13;;;11.50;99.90;;;;;;4982857;28;20054;-35
2023/12/25 00:29:53;;;;;;;13.70;1.70;;;11.50;99.90;;;;;;4984444;28;20459;-35
2023/12/25 00:32:19;;;;;;;7.60;1.55;;;11.40;99.90;;;;;;4985177;28;20050;-36
2023/12/25 00:34:45;;;;;;;10.55;2.20;;;11.40;99.90;;;;;;4986654;28;20046;-36
2023/12/25 00:37:11;;;;;;;9.60;1.50;;;11.40;99.90;;;;;;4982439;28;20137;-36
2023/12/25 00:39:36;;;;;;;9.27;1.20;;;11.30;99.90;;;;;;4985649;28;20061;-36
2023/12/25 00:42:02;;;;;;;8.00;1.70;;;11.30;99.90;;;;;;4983194;28;20058;-37
2023/12/25 00:44:28;;;;;;;13.07;1.63;;;11.30;99.90;;;;;;4983310;28;20046;-36
2023/12/25 00:46:54;;;;;;;10.52;1.65;;;11.20;99.90;;;;;;4984811;28;20109;-35
2023/12/25 00:49:20;;;;;;;14.95;1.92;;;11.20;99.90;;;;;;4985653;28;20046;-35
2023/12/25 00:51:45;;;;;;;10.82;1.58;;;11.20;99.90;;;;;;4982256;28;20059;-36
2023/12/25 00:54:11;;;;;;;13.00;1.88;;;11.20;99.90;;;;;;4982532;28;20051;-36
2023/12/25 00:56:37;;;;;;;14.88;1.88;;;11.20;99.90;;;;;;4982679;28;20129;-36
2023/12/25 00:59:02;;;;;;;10.85;2.30;;;11.20;99.90;;;;;;4985350;28;20066;-35
2023/12/25 01:01:28;;;;;;;8.38;1.50;;;11.20;99.90;;;;;;4984617;28;20428;-37
2023/12/25 01:03:53;;;;;;;13.45;1.90;;;11.20;99.90;;;;;;4983674;28;20050;-36
2023/12/25 01:06:19;;;;;;;9.80;1.77;;;11.20;99.90;;;;;;4984302;28;20050;-36
2023/12/25 01:08:45;;;;;;;15.27;2.25;;;11.20;99.90;;;;;;4986557;28;20054;-35
2023/12/25 01:11:10;;;;;;;12.57;2.72;;;11.20;99.90;;;;;;4986288;28;20058;-36
2023/12/25 01:13:36;;;;;;;9.75;1.88;;;11.20;99.90;;;;;;4983413;28;20406;-36
2023/12/25 01:16:02;;;;;;;13.13;1.90;;;11.10;99.90;;;;;;4980671;28;20508;-36
2023/12/25 01:18:27;;;;;;;14.38;2.15;;;11.10;99.90;;;;;;4984998;28;20054;-39
2023/12/25 01:20:53;;;;;;;12.77;1.88;;;11.10;99.90;;;;;;4983619;28;20049;-36
2023/12/25 01:23:19;;;;;;;10.40;1.65;;;11.00;99.90;;;;;;4982349;28;20454;-36
2023/12/25 01:25:44;;;;;;;17.88;2.58;;;11.00;99.90;;;;;;4983824;28;20202;-36
2023/12/25 01:28:10;;;;;;;12.23;1.65;;;11.00;99.90;;;;;;4979325;28;20117;-36
2023/12/25 01:30:35;;;;;;;12.98;2.20;;;11.00;99.90;;;;;;4982725;28;20133;-36
2023/12/25 01:33:01;;;;;;;9.18;1.67;;;11.00;99.90;;;;;;4986424;28;20383;-36
2023/12/25 01:35:27;;;;;;;8.30;1.80;;;11.00;99.90;;;;;;4982786;28;20112;-37
2023/12/25 01:37:53;;;;;;;6.78;1.55;;;11.00;99.90;;;;;;4983023;28;20054;-36
2023/12/25 01:40:18;;;;;;;9.23;1.83;;;11.00;99.90;;;;;;4983770;28;20612;-36
2023/12/25 01:42:44;;;;;;;13.18;2.30;;;11.00;99.90;;;;;;4984996;28;20062;-36
2023/12/25 01:45:10;;;;;;;6.90;1.50;;;11.00;99.90;;;;;;4979970;28;20409;-36
2023/12/25 01:47:36;;;;;;;9.23;1.75;;;11.00;99.90;;;;;;4983695;28;20060;-36
2023/12/25 01:50:04;;;;;;;13.65;2.17;;;11.00;99.90;;;;;;4981554;28;20309;-36
2023/12/25 01:52:30;;;;;;;11.55;1.70;;;11.00;99.90;;;;;;4984562;28;20129;-36
2023/12/25 01:55:01;;;;;;;10.82;1.83;;;11.00;99.90;;;;;;4981573;28;20129;-35
2023/12/25 01:57:31;;;;;;;9.23;1.55;;;11.00;99.90;;;;;;4984959;28;20092;-35
2023/12/25 01:59:56;;;;;;;8.90;1.25;;;11.00;99.90;;;;;;4984336;28;20050;-36
2023/12/25 02:02:23;;;;;;;11.23;1.38;;;11.00;99.90;;;;;;4982240;28;20069;-36
2023/12/25 02:04:48;;;;;;;8.50;1.13;;;11.00;99.90;;;;;;4982363;28;20050;-36
2023/12/25 02:07:15;;;;;;;7.07;1.10;;;11.00;99.90;;;;;;4983350;28;20050;-36
2023/12/25 02:09:40;;;;;;;11.60;1.77;;;11.00;99.90;;;;;;4982998;28;20513;-35
2023/12/25 02:12:06;;;;;;;10.85;2.00;;;11.10;99.90;;;;;;4981660;28;20050;-35
2023/12/25 02:14:32;;;;;;;14.27;1.73;;;11.10;99.90;;;;;;4977826;28;20144;-35
2023/12/25 02:16:59;;;;;;;8.02;1.52;;;11.10;99.90;;;;;;4983444;28;20141;-36
2023/12/25 02:19:34;;;;;;;8.45;1.52;;;11.10;99.90;;;;;;4984828;28;20058;-36
2023/12/25 02:22:00;;;;;;;8.45;1.77;;;11.00;99.90;;;;;;4979167;28;20109;-35
2023/12/25 02:24:31;;;;;;;8.80;1.77;;;11.10;99.90;;;;;;4980357;28;20047;-35
2023/12/25 02:26:57;;;;;;;6.88;1.20;;;11.00;99.90;;;;;;4982846;28;20486;-36
2023/12/25 02:29:22;;;;;;;10.32;1.27;;;11.00;99.90;;;;;;4981859;28;20046;-36
2023/12/25 02:31:49;;;;;;;6.50;1.02;;;11.00;99.90;;;;;;4984739;28;20568;-36
2023/12/25 02:34:15;;;;;;;7.32;1.08;;;11.00;99.90;;;;;;4979694;28;20300;-35
2023/12/25 02:36:41;;;;;;;10.35;1.20;;;11.00;99.90;;;;;;4979828;28;20141;-35
2023/12/25 02:39:07;;;;;;;7.28;0.90;;;11.00;99.90;;;;;;4982315;28;20054;-36
2023/12/25 02:41:32;;;;;;;7.45;0.93;;;11.10;99.90;;;;;;4982397;28;20156;-36
2023/12/25 02:43:58;;;;;;;4.55;1.00;;;11.10;99.90;;;;;;4981388;28;20054;-35
2023/12/25 02:46:24;;;;;;;12.75;1.25;;;11.10;99.90;;;;;;4979285;28;20047;-35
2023/12/25 02:48:50;;;;;;;5.43;0.77;;;11.10;99.90;;;;;;4985084;28;20066;-35
2023/12/25 02:51:15;;;;;;;11.35;1.02;;;11.10;99.90;;;;;;4978846;28;20061;-35
2023/12/25 02:53:41;;;;;;;9.07;1.25;;;11.10;99.90;;;;;;4984981;28;20057;-34
2023/12/25 02:56:07;;;;;;;5.97;0.88;;;11.10;99.90;;;;;;4982347;28;20069;-35
2023/12/25 02:58:33;;;;;;;6.28;1.25;;;11.10;99.90;;;;;;4978008;28;20050;-35
2023/12/25 03:00:59;;;;;;;7.13;0.90;;;11.10;99.90;;;;;;4980022;28;20328;-35
2023/12/25 03:03:24;;;;;;;7.13;0.88;;;11.00;99.90;;;;;;4985233;28;20054;-34
2023/12/25 03:05:50;;;;;;;5.55;0.80;;;11.10;99.90;;;;;;4977411;28;20703;-38
2023/12/25 03:08:16;;;;;;;4.90;0.60;;;11.10;99.90;;;;;;4977916;28;20046;-36
2023/12/25 03:10:42;;;;;;;5.50;1.10;;;11.10;99.90;;;;;;4982341;28;20057;-35
2023/12/25 03:13:07;;;;;;;8.68;1.02;;;11.10;99.90;;;;;;4980770;28;20145;-37
2023/12/25 03:15:34;;;;;;;5.10;0.70;;;11.10;99.90;;;;;;4981812;28;20080;-35
2023/12/25 03:18:00;;;;;;;5.53;0.70;;;11.20;99.90;;;;;;4982542;28;20042;-35
2023/12/25 03:20:26;;;;;;;6.55;0.98;;;11.20;99.90;;;;;;4979977;28;20049;-35
2023/12/25 03:22:52;;;;;;;6.55;1.02;;;11.20;99.90;;;;;;4984703;28;20138;-37
2023/12/25 03:25:17;;;;;;;4.72;0.60;;;11.20;99.90;;;;;;4979806;28;20074;-35
2023/12/25 03:27:43;;;;;;;4.72;1.00;;;11.20;99.90;;;;;;4980220;28;20076;-37
2023/12/25 03:30:09;;;;;;;6.25;0.68;;;11.20;99.90;;;;;;4981491;28;20046;-35
2023/12/25 03:32:35;;;;;;;3.75;0.80;;;11.20;99.90;;;;;;4966400;28;20050;-35
2023/12/25 03:35:00;;;;;;;5.57;0.88;;;11.20;99.90;;;;;;4982255;28;20076;-35
2023/12/25 03:37:26;;;;;;;5.38;0.68;;;11.10;99.90;;;;;;4978123;28;20054;-35
2023/12/25 03:39:52;;;;;;;4.32;0.52;;;11.10;99.90;;;;;;4984102;28;20278;-38
2023/12/25 03:42:18;;;;;;;8.85;0.73;;;11.10;99.90;;;;;;4982064;28;20061;-35
2023/12/25 03:44:44;;;;;;;7.30;1.13;;;11.00;99.90;;;;;;4982000;28;20056;-35
2023/12/25 03:47:12;;;;;;;5.22;0.80;;;11.00;99.90;;;;;;4979626;28;20172;-38
2023/12/25 03:49:37;;;;;;;7.00;0.82;;;11.10;99.90;;;;;;4979701;28;20498;-35
2023/12/25 03:52:03;;;;;;;6.68;1.10;;;11.00;99.90;;;;;;4980657;28;20061;-36
2023/12/25 03:54:30;;;;;;;5.60;0.60;;;11.00;99.90;;;;;;4981500;28;20073;-36
2023/12/25 03:56:56;;;;;;;6.07;0.65;;;11.00;99.90;;;;;;4976136;28;20058;-36
2023/12/25 03:59:22;;;;;;;12.25;0.93;;;11.00;99.90;;;;;;4983431;28;20116;-36
2023/12/25 04:01:48;;;;;;;6.18;0.63;;;11.00;99.90;;;;;;4976931;28;20470;-36
2023/12/25 04:04:13;;;;;;;5.03;0.70;;;11.00;99.90;;;;;;4980473;28;20417;-36
2023/12/25 04:06:39;;;;;;;8.45;0.77;;;11.10;99.90;;;;;;4980362;28;20081;-35
2023/12/25 04:09:05;;;;;;;3.83;0.60;;;11.10;99.90;;;;;;4981471;28;20125;-35
2023/12/25 04:11:31;;;;;;;4.72;0.95;;;11.10;99.90;;;;;;4980834;28;20410;-35
2023/12/25 04:13:56;;;;;;;7.97;0.98;;;11.10;99.90;;;;;;4983173;28;20045;-36
2023/12/25 04:16:24;;;;;;;3.83;0.60;;;11.10;99.90;;;;;;4976022;28;20581;-36
2023/12/25 04:18:52;;;;;;;4.15;0.70;;;11.10;99.90;;;;;;4982628;28;20054;-35
2023/12/25 04:21:26;;;;;;;9.43;0.95;;;11.10;99.90;;;;;;4982334;28;20516;-35
2023/12/25 04:23:54;;;;;;;6.10;1.08;;;11.00;99.90;;;;;;4982685;28;20562;-36
2023/12/25 04:26:20;;;;;;;7.20;0.80;;;11.00;99.90;;;;;;4981723;28;20057;-35
2023/12/25 04:28:50;;;;;;;5.93;0.93;;;11.00;99.90;;;;;;4979533;28;20572;-34
2023/12/25 04:31:16;;;;;;;8.48;1.10;;;11.00;99.90;;;;;;4981672;28;20054;-36
2023/12/25 04:33:42;;;;;;;6.03;0.70;;;11.00;99.90;;;;;;4983215;28;20422;-35
2023/12/25 04:36:08;;;;;;;12.18;1.20;;;11.00;99.90;;;;;;4979999;28;20042;-35
2023/12/25 04:38:34;;;;;;;5.72;1.25;;;11.00;99.90;;;;;;4985053;28;20051;-35
2023/12/25 04:41:00;;;;;;;7.30;0.95;;;11.00;99.90;;;;;;4985921;28;20108;-35
2023/12/25 04:43:25;;;;;;;5.30;0.68;;;11.10;99.90;;;;;;4985750;28;20069;-35
2023/12/25 04:45:51;;;;;;;7.65;2.30;;;11.10;99.90;;;;;;4986460;28;20464;-35
2023/12/25 04:48:17;;;;;;;5.15;0.77;;;11.10;99.90;;;;;;4984312;28;20046;-35
2023/12/25 04:50:44;;;;;;;7.30;0.93;;;11.10;99.90;;;;;;4983474;28;20050;-35
2023/12/25 04:53:10;;;;;;;7.25;1.00;;;11.10;99.90;;;;;;4985979;28;20054;-36
2023/12/25 04:55:37;;;;;;;9.55;1.33;;;11.10;99.90;;;;;;4984809;28;20396;-36
2023/12/25 04:58:03;;;;;;;6.85;1.10;;;11.10;99.90;;;;;;4985306;28;20693;-36
2023/12/25 05:00:30;;;;;;;8.45;1.17;;;11.10;99.90;;;;;;4981404;28;20065;-36
2023/12/25 05:02:56;;;;;;;6.40;0.60;;;11.10;99.90;;;;;;4981259;28;20489;-35
2023/12/25 05:05:22;;;;;;;7.03;1.23;;;11.10;99.90;;;;;;4980367;28;20116;-35
2023/12/25 05:07:47;;;;;;;10.45;1.33;;;11.10;99.90;;;;;;4982717;28;20046;-35
2023/12/25 05:10:13;;;;;;;11.38;1.15;;;11.10;99.90;;;;;;4985571;28;20057;-35
2023/12/25 05:12:39;;;;;;;6.63;1.10;;;11.10;99.90;;;;;;4981415;28;20050;-35
2023/12/25 05:15:05;;;;;;;6.28;1.00;;;11.10;99.90;;;;;;4986107;28;20050;-34
2023/12/25 05:17:30;;;;;;;9.50;1.77;;;11.10;99.90;;;;;;4984316;28;20042;-35
2023/12/25 05:19:56;;;;;;;6.78;0.93;;;11.00;99.90;;;;;;4981471;28;20418;-35
2023/12/25 05:22:22;;;;;;;8.88;1.30;;;11.00;99.90;;;;;;4981987;28;20695;-35
2023/12/25 05:24:47;;;;;;;8.77;1.30;;;11.00;99.90;;;;;;4984324;28;20060;-34
2023/12/25 05:27:13;;;;;;;8.73;1.45;;;11.00;99.90;;;;;;4981223;28;20572;-35
2023/12/25 05:29:39;;;;;;;9.80;1.30;;;11.00;99.90;;;;;;4981695;28;20062;-36
2023/12/25 05:32:05;;;;;;;8.02;1.20;;;11.00;99.90;;;;;;4983961;28;20112;-35
2023/12/25 05:34:30;;;;;;;9.43;1.15;;;11.00;99.90;;;;;;4981097;28;20046;-36
2023/12/25 05:36:56;;;;;;;9.35;1.52;;;11.00;99.90;;;;;;4983122;28;20081;-36
2023/12/25 05:39:24;;;;;;;7.45;0.80;;;11.00;99.90;;;;;;4986562;28;20057;-36
2023/12/25 05:41:50;;;;;;;7.10;0.88;;;11.00;99.90;;;;;;4979196;28;20068;-35
2023/12/25 05:44:16;;;;;;;6.97;1.33;;;11.00;99.90;;;;;;4982762;28;20105;-36
2023/12/25 05:46:42;;;;;;;7.47;0.82;;;11.00;99.90;;;;;;4965662;28;20050;-35
2023/12/25 05:49:08;;;;;;;9.20;1.05;;;11.00;99.90;;;;;;4980930;28;20053;-35
2023/12/25 05:51:33;;;;;;;8.10;1.08;;;11.00;99.90;;;;;;4980891;28;20065;-35
2023/12/25 05:53:59;;;;;;;7.05;0.93;;;11.00;99.90;;;;;;4980417;28;20133;-35
2023/12/25 05:56:25;;;;;;;5.85;0.85;;;11.00;99.90;;;;;;4986510;28;20054;-36
2023/12/25 05:58:50;;;;;;;11.82;1.30;;;11.00;99.90;;;;;;4984436;28;20049;-34
2023/12/25 06:01:16;;;;;;;8.32;1.35;;;11.00;99.90;;;;;;4980763;28;20466;-36
2023/12/25 06:03:42;;;;;;;8.57;0.90;;;10.90;99.90;;;;;;4984884;28;20054;-35
2023/12/25 06:06:08;;;;;;;5.78;0.80;;;10.90;99.90;;;;;;4982087;28;20049;-34
2023/12/25 06:08:34;;;;;;;7.00;0.95;;;10.90;99.90;;;;;;4982066;28;20172;-36
2023/12/25 06:11:00;;;;;;;6.57;0.90;;;10.90;99.90;;;;;;4982257;28;20152;-35
2023/12/25 06:13:25;;;;;;;6.35;0.90;;;10.80;99.90;;;;;;4980034;28;20053;-35
2023/12/25 06:15:52;;;;;;;6.78;0.90;;;10.80;99.90;;;;;;4981932;28;20395;-35
2023/12/25 06:18:18;;;;;;;6.30;1.02;;;10.80;99.90;;;;;;4983791;28;20057;-35
2023/12/25 06:20:43;;;;;;;5.13;0.93;;;10.70;99.90;;;;;;4980302;28;20080;-35
2023/12/25 06:23:10;;;;;;;9.02;0.90;;;10.70;99.90;;;;;;4982472;28;20074;-34
2023/12/25 06:25:36;;;;;;;5.15;0.88;;;10.70;99.90;;;;;;4984105;28;20046;-35
2023/12/25 06:28:02;;;;;;;8.43;1.20;;;10.70;99.90;;;;;;4983023;28;20054;-38
2023/12/25 06:30:28;;;;;;;7.90;1.08;;;10.60;99.90;;;;;;4982936;28;20478;-37
2023/12/25 06:32:54;;;;;;;5.18;0.90;;;10.60;99.90;;;;;;4985254;28;20049;-37
2023/12/25 06:35:19;;;;;;;8.73;1.17;;;10.60;99.90;;;;;;4979417;28;20054;-35
2023/12/25 06:37:45;;;;;;;7.97;1.25;;;10.60;99.90;;;;;;4980052;28;20092;-35
2023/12/25 06:40:11;;;;;;;7.32;0.80;;;10.60;99.90;;;;;;4981630;28;20428;-35
2023/12/25 06:42:37;;;;;;;5.38;0.73;;;10.60;99.90;;;;;;4981380;28;21695;-36
2023/12/25 06:45:03;;;;;;;5.38;0.73;;;10.50;99.90;;;;;;4980622;28;20062;-36
2023/12/25 06:47:29;;;;;;;8.98;1.10;;;10.50;99.90;;;;;;4982532;28;20426;-36
2023/12/25 06:49:55;;;;;;;5.25;0.80;;;10.50;99.90;;;;;;4980015;28;20057;-35
2023/12/25 06:52:20;;;;;;;6.70;1.33;;;10.40;99.90;;;;;;4979754;28;20058;-35
2023/12/25 06:54:46;;;;;;;6.38;1.10;;;10.40;99.90;;;;;;4981760;28;20505;-35
2023/12/25 06:57:13;;;;;;;7.43;0.70;;;10.30;99.90;;;;;;4982567;28;20051;-35
2023/12/25 06:59:40;;;;;;;5.05;0.88;;;10.30;99.90;;;;;;4978920;28;20046;-35
2023/12/25 07:02:07;;;;;;;8.88;0.93;;;10.30;99.90;;;;;;4977216;28;20069;-36
2023/12/25 07:04:34;;;;;;;8.75;0.90;;;10.20;99.90;;;;;;4981216;28;20271;-35
2023/12/25 07:06:59;;;;;;;6.07;0.70;;;10.20;99.90;;;;;;4981879;28;20089;-36
2023/12/25 07:09:26;;;;;;;7.38;1.00;;;10.20;99.90;;;;;;4983252;28;20066;-36
2023/12/25 07:11:52;;;;;;;6.53;1.00;;;10.20;99.90;;;;;;4982029;28;20510;-36
2023/12/25 07:14:18;;;;;;;8.02;0.93;;;10.10;99.90;;;;;;4978682;28;20127;-36
2023/12/25 07:16:44;;;;;;;10.10;1.10;;;10.10;99.90;;;;;;4982819;28;20050;-36
2023/12/25 07:19:09;;;;;;;7.60;1.50;;;10.10;99.90;;;;;;4981251;28;20461;-36
2023/12/25 07:21:35;;;;;;;8.30;1.00;;;10.10;99.90;;;;;;4982572;28;20147;-36
2023/12/25 07:24:01;;;;;;;5.18;0.70;;;10.00;99.90;;;;;;4976691;28;20137;-36
2023/12/25 07:26:28;;;;;;;4.72;1.02;;;10.00;99.90;;;;;;4981455;28;20056;-36
2023/12/25 07:28:54;;;;;;;4.60;0.70;;;10.00;99.90;;;;;;4979011;28;20576;-39
2023/12/25 07:31:22;;;;;;;6.72;1.05;;;9.90;99.90;;;;;;4981627;28;20054;-36
2023/12/25 07:33:50;;;;;;;4.35;0.80;;;9.90;99.90;;;;;;4980547;28;20050;-36
2023/12/25 07:36:16;;;;;;;6.22;1.42;;;9.80;99.90;;;;;;4981756;28;20126;-36
2023/12/25 07:38:41;;;;;;;6.00;1.45;;;9.80;99.90;;;;;;4983333;28;20051;-36
2023/12/25 07:41:11;;;;;;;9.00;1.00;;;9.70;99.90;;;;;;4980881;28;20561;-35
2023/12/25 07:43:37;;;;;;;12.85;1.20;;;9.70;99.90;;;;;;4980084;28;20050;-36
2023/12/25 07:46:06;;;;;;;8.60;0.95;;;9.60;99.90;;;;;;4979703;28;20131;-35
2023/12/25 07:48:33;;;;;;;5.93;0.90;;;9.60;99.90;;;;;;4979630;28;20057;-36
2023/12/25 07:50:58;;;;;;;9.38;1.30;;;9.60;99.90;;;;;;4977871;28;20085;-35
2023/12/25 07:53:24;;;;;;;5.50;1.00;;;9.50;99.90;;;;;;4979314;28;20058;-34
2023/12/25 07:55:49;;;;;;;9.05;1.50;;;9.50;99.90;;;;;;4980876;28;20046;-35
2023/12/25 07:58:15;;;;;;;6.07;0.93;;;9.50;99.90;;;;;;4982816;28;20054;-36
2023/12/25 08:00:42;;;;;;;5.82;1.10;;;9.50;99.90;;;;;;4978545;28;20051;-36
2023/12/25 08:03:11;;;;;;;7.80;1.02;;;9.60;99.90;;;;;;4979125;28;20058;-35
2023/12/25 08:05:38;;;;;;;6.90;0.77;;;9.50;99.90;;;;;;4976278;28;20051;-35
2023/12/25 08:08:05;;;;;;;6.85;1.00;;;9.60;99.90;;;;;;4986495;28;20050;-44
2023/12/25 08:10:31;;;;;;;7.50;1.00;;;9.50;99.90;;;;;;4981573;28;20050;-35
2023/12/25 08:12:58;;;;;;;8.90;1.10;;;9.60;99.90;;;;;;4985071;28;21293;-35
2023/12/25 08:15:25;;;;;;;6.97;0.60;;;9.60;99.90;;;;;;4985121;28;20510;-35
2023/12/25 08:17:51;;;;;;;4.35;0.90;;;9.60;99.90;;;;;;4979080;28;20186;-35
2023/12/25 08:20:17;;;;;;;4.97;0.70;;;9.60;99.90;;;;;;4984263;28;20461;-35
2023/12/25 08:22:43;;;;;;;7.47;0.75;;;9.70;99.90;;;;;;4984239;28;20065;-36
2023/12/25 08:25:08;;;;;;;10.52;0.90;;;9.70;99.90;;;;;;4982503;28;20054;-35
2023/12/25 08:27:35;;;;;;;9.57;1.60;;;9.70;99.90;;;;;;4982672;28;20466;-36
2023/12/25 08:30:01;;;;;;;6.05;0.82;;;9.60;99.90;;;;;;4984778;28;20137;-35
2023/12/25 08:32:26;;;;;;;10.02;1.15;;;9.60;99.90;;;;;;4984758;28;20046;-35
2023/12/25 08:34:52;;;;;;;8.95;1.17;;;9.60;99.90;;;;;;4986046;28;20125;-35
2023/12/25 08:37:18;;;;;;;5.10;0.95;;;9.60;99.90;;;;;;4984119;28;20821;-36
2023/12/25 08:39:44;;;;;;;6.68;0.60;;;9.60;99.90;;;;;;4987290;28;20226;-35
2023/12/25 08:42:09;;;;;;;7.82;0.80;;;9.60;99.90;;;;;;4985206;28;20498;-35
2023/12/25 08:44:35;;;;;;;7.07;1.05;;;9.60;99.90;;;;;;4985389;28;20461;-35
2023/12/25 08:47:03;;;;;;;6.63;0.90;;;9.60;99.90;;;;;;4982273;28;21643;-35
2023/12/25 08:49:29;;;;;;;6.00;0.80;;;9.60;99.90;;;;;;4985927;28;20545;-37
2023/12/25 08:51:54;;;;;;;10.85;1.02;;;9.60;99.90;;;;;;4981702;28;20085;-36
2023/12/25 08:54:20;;;;;;;5.45;0.90;;;9.60;99.90;;;;;;4977587;28;20141;-36
2023/12/25 08:56:45;;;;;;;7.70;1.00;;;9.60;99.90;;;;;;4982129;28;20116;-36
2023/12/25 08:59:11;;;;;;;8.20;0.88;;;9.60;99.90;;;;;;4981064;28;20495;-36
2023/12/25 09:01:37;;;;;;;7.53;1.10;;;9.60;99.90;;;;;;4984192;28;20489;-36
2023/12/25 09:04:03;;;;;;;12.52;1.15;;;9.60;99.90;;;;;;4986504;28;20054;-35
2023/12/25 09:06:28;;;;;;;10.18;1.20;;;9.60;99.90;;;;;;4996745;28;20120;-36
2023/12/25 09:08:55;;;;;;;4.82;1.52;;;9.60;99.90;;;;;;4983703;28;20054;-35
2023/12/25 09:11:21;;;;;;;6.38;1.00;;;9.60;99.90;;;;;;4986022;28;20109;-36
2023/12/25 09:13:46;;;;;;;6.18;0.90;;;9.60;99.90;;;;;;4984325;28;20047;-37
2023/12/25 09:16:12;;;;;;;8.45;1.30;;;9.60;99.90;;;;;;4979703;28;20140;-35
2023/12/25 09:18:38;;;;;;;10.00;1.10;;;9.70;99.90;;;;;;4982690;28;20076;-37
2023/12/25 09:21:04;;;;;;;7.35;0.88;;;9.70;99.90;;;;;;4983130;28;20461;-39
2023/12/25 09:23:30;;;;;;;8.05;0.93;;;9.70;99.90;;;;;;4983273;28;20046;-35
2023/12/25 09:25:55;;;;;;;6.95;0.90;;;9.70;99.90;;;;;;4979554;28;20112;-34
2023/12/25 09:28:22;;;;;;;10.02;1.85;;;9.70;99.90;;;;;;4981799;28;20042;-37
2023/12/25 09:30:47;;;;;;;9.73;1.23;;;9.70;99.90;;;;;;4984101;28;20383;-36
2023/12/25 09:33:13;;;;;;;7.35;1.13;;;9.70;99.90;;;;;;4981191;28;20104;-36
2023/12/25 09:35:39;;;;;;;11.18;1.40;;;9.70;99.90;;;;;;4982837;28;20410;-35
2023/12/25 09:38:04;;;;;;;7.20;1.08;;;9.70;99.90;;;;;;4972904;28;20199;-35
2023/12/25 09:40:31;;;;;;;6.03;1.05;;;9.70;99.90;;;;;;4981347;28;20433;-37
2023/12/25 09:42:59;;;;;;;8.85;1.30;;;9.70;99.90;;;;;;4982108;28;20568;-35
2023/12/25 09:45:26;;;;;;;7.80;1.10;;;9.70;99.90;;;;;;4984799;28;20124;-36
2023/12/25 09:47:52;;;;;;;11.85;1.00;;;9.60;99.90;;;;;;4983329;28;20057;-37
2023/12/25 09:50:21;;;;;;;6.22;1.15;;;9.70;99.90;;;;;;4978493;28;20375;-38
2023/12/25 09:52:47;;;;;;;6.80;0.90;;;9.70;99.90;;;;;;4982153;28;20416;-35
2023/12/25 09:55:13;;;;;;;5.20;0.82;;;9.70;99.90;;;;;;4977958;28;20129;-35
2023/12/25 09:57:40;;;;;;;10.43;1.30;;;9.70;99.90;;;;;;4980817;28;20054;-36
2023/12/25 10:00:08;;;;;;;6.82;0.90;;;9.80;99.90;;;;;;4984662;28;20510;-36
2023/12/25 10:02:39;;;;;;;6.10;1.52;;;9.80;99.90;;;;;;4979802;28;20133;-36
2023/12/25 10:05:06;;;;;;;11.00;1.35;;;9.90;99.90;;;;;;4984261;28;20486;-36
2023/12/25 10:07:32;;;;;;;6.28;1.42;;;9.90;99.90;;;;;;4983324;28;20104;-36
2023/12/25 10:09:58;;;;;;;9.85;1.00;;;10.00;99.90;;;;;;4997663;28;20097;-35
2023/12/25 10:12:25;;;;;;;5.90;0.90;;;10.00;99.90;;;;;;4985891;28;20486;-36
2023/12/25 10:14:50;;;;;;;10.13;1.10;;;10.10;99.90;;;;;;4980644;28;20522;-36
2023/12/25 10:17:16;;;;;;;7.43;1.00;;;10.20;99.90;;;;;;4979871;28;20129;-36
2023/12/25 10:19:54;;;;;;;7.07;1.25;;;10.20;99.90;;;;;;4980201;28;20555;-37
2023/12/25 10:22:38;;;;;;;7.88;1.25;;;10.20;99.90;;;;;;4974821;28;20070;-36
2023/12/25 10:25:13;;;;;;;13.13;1.08;;;10.30;99.90;;;;;;4984403;28;20288;-35
2023/12/25 10:27:42;;;;;;;9.85;0.90;;;10.30;99.90;;;;;;4981170;28;20058;-36
2023/12/25 10:30:18;;;;;;;13.27;1.45;;;10.30;99.90;;;;;;4981531;28;20417;-35
2023/12/25 10:32:43;;;;;;;10.05;1.13;;;10.40;99.90;;;;;;4979783;28;20494;-35
2023/12/25 10:35:12;;;;;;;7.13;0.98;;;10.40;99.90;;;;;;4979164;28;20105;-35
2023/12/25 10:37:39;;;;;;;5.15;0.80;;;10.40;99.90;;;;;;4981992;28;20088;-36
2023/12/25 10:40:26;;;;;;;10.05;0.77;;;10.40;99.90;;;;;;4980287;28;20077;-35
2023/12/25 10:42:54;;;;;;;9.70;1.00;;;10.40;99.90;;;;;;4973364;28;20137;-35
2023/12/25 10:45:25;;;;;;;8.23;1.10;;;10.40;99.90;;;;;;4978781;28;20506;-36
2023/12/25 10:47:55;;;;;;;8.20;0.93;;;10.40;99.90;;;;;;4975615;28;20177;-36
2023/12/25 10:50:26;;;;;;;7.40;1.45;;;10.40;99.90;;;;;;4980912;28;20479;-35
2023/12/25 10:52:53;;;;;;;9.82;1.25;;;10.40;99.90;;;;;;4964643;28;20046;-36
2023/12/25 10:55:41;;;;;;;7.03;1.17;;;10.40;99.90;;;;;;4963023;28;20135;-36
2023/12/25 10:58:11;;;;;;;8.30;1.45;;;10.40;99.90;;;;;;4978014;28;20168;-35
2023/12/25 11:00:46;;;;;;;7.22;0.80;;;10.40;99.90;;;;;;4977706;28;20046;-36
2023/12/25 11:03:15;;;;;;;6.30;0.80;;;10.50;99.90;;;;;;4976702;28;20066;-35
2023/12/25 11:05:41;;;;;;;8.05;1.00;;;10.50;99.90;;;;;;4985198;28;20575;-35
2023/12/25 11:08:08;;;;;;;7.13;0.90;;;10.50;99.90;;;;;;4982608;28;20046;-35
2023/12/25 11:10:35;;;;;;;5.38;1.10;;;10.50;99.90;;;;;;4984031;28;20092;-35
2023/12/25 11:13:02;;;;;;;6.22;0.93;;;10.60;99.90;;;;;;4981984;28;20060;-36
2023/12/25 11:15:28;;;;;;;8.80;1.20;;;10.60;99.90;;;;;;4974608;28;20042;-35
2023/12/25 11:17:54;;;;;;;5.68;0.90;;;10.60;99.90;;;;;;4978158;28;20062;-36
2023/12/25 11:20:20;;;;;;;9.95;1.38;;;10.70;99.90;;;;;;4978486;28;20072;-35
2023/12/25 11:22:46;;;;;;;3.40;0.80;;;10.60;99.90;;;;;;4978482;28;20517;-37
2023/12/25 11:25:19;;;;;;;8.23;1.48;;;10.70;99.90;;;;;;4964180;28;20130;-35
2023/12/25 11:27:55;;;;;;;7.20;1.00;;;10.70;99.90;;;;;;4967921;28;20098;-35
2023/12/25 11:30:23;;;;;;;5.82;0.98;;;10.70;99.90;;;;;;4975524;28;20565;-35
2023/12/25 11:32:50;;;;;;;5.60;1.02;;;10.70;99.90;;;;;;4982251;28;20050;-36
2023/12/25 11:35:27;;;;;;;6.53;0.82;;;10.70;99.90;;;;;;4980355;28;20060;-37
2023/12/25 11:38:23;;;;;;;7.97;1.23;;;10.60;99.90;;;;;;4975892;28;20481;-35
2023/12/25 11:40:50;;;;;;;8.63;0.80;;;10.60;99.90;;;;;;4982838;28;20178;-35
2023/12/25 11:43:18;;;;;;;7.57;0.80;;;10.60;99.90;;;;;;4979146;28;20062;-35
2023/12/25 11:45:45;;;;;;;6.93;1.30;;;10.60;99.90;;;;;;4980269;28;20668;-35
2023/12/25 11:48:13;;;;;;;12.52;1.88;;;10.60;99.90;;;;;;4981608;28;20058;-35
2023/12/25 11:50:42;;;;;;;8.88;1.83;;;10.50;99.90;;;;;;4972312;28;20105;-36
2023/12/25 11:53:08;;;;;;;10.13;1.27;;;10.60;99.90;;;;;;4968850;28;20050;-36
2023/12/25 11:55:35;;;;;;;7.93;1.55;;;10.60;99.90;;;;;;4964287;28;20062;-36
2023/12/25 11:58:02;;;;;;;8.18;1.55;;;10.50;99.90;;;;;;4979793;28;20054;-36
2023/12/25 12:00:31;;;;;;;12.35;1.60;;;10.60;99.90;;;;;;4963927;28;20418;-37
2023/12/25 12:02:57;;;;;;;7.53;2.03;;;10.60;99.90;;;;;;4983366;28;20062;-37
2023/12/25 12:05:23;;;;;;;9.45;1.80;;;10.60;99.90;;;;;;4981291;28;20078;-35
2023/12/25 12:07:48;;;;;;;6.70;1.38;;;10.60;99.90;;;;;;4984675;28;20093;-37
2023/12/25 12:10:15;;;;;;;7.63;1.27;;;10.60;99.90;;;;;;4989364;28;20585;-36
2023/12/25 12:12:41;;;;;;;6.40;1.13;;;10.70;99.90;;;;;;4989519;28;20042;-36
2023/12/25 12:15:08;;;;;;;5.85;0.88;;;10.70;99.90;;;;;;4983933;28;20498;-36
2023/12/25 12:17:35;;;;;;;5.88;0.93;;;10.70;99.90;;;;;;4981263;28;20145;-36
2023/12/25 12:20:05;;;;;;;7.38;0.80;;;10.70;99.90;;;;;;4989555;28;20042;-42
2023/12/25 12:22:32;;;;;;;5.68;0.80;;;10.80;99.90;;;;;;4963753;28;20144;-36
2023/12/25 12:25:19;;;;;;;4.95;0.82;;;10.90;99.90;;;;;;4985027;28;20050;-36
2023/12/25 12:27:46;;;;;;;8.85;1.27;;;11.00;99.90;;;;;;4984627;28;20070;-36
2023/12/25 12:30:12;;;;;;;5.97;1.33;;;11.10;99.90;;;;;;4985181;28;20048;-36
2023/12/25 12:32:41;;;;;;;7.90;1.33;;;11.10;99.90;;;;;;4968777;28;20049;-36
2023/12/25 12:35:08;;;;;;;5.63;1.00;;;11.20;99.90;;;;;;4983176;28;20408;-36
2023/12/25 12:37:34;;;;;;;6.25;1.25;;;11.20;99.90;;;;;;4970127;28;20182;-35
2023/12/25 12:40:05;;;;;;;4.28;0.60;;;11.20;99.90;;;;;;4986081;28;20417;-36
2023/12/25 12:42:35;;;;;;;6.65;1.38;;;11.20;99.90;;;;;;4982341;28;20046;-36
2023/12/25 12:45:04;;;;;;;7.00;1.13;;;11.20;99.90;;;;;;4969714;28;20055;-36